sensor_id;sensor_type;location;lat;lon;timestamp;P1;durP1;ratioP1;P2;durP2;ratioP2
52342;SDS011;38277;51.972;4.624;2022-07-06T00:03:36;1.0;;;0.9;;
52342;SDS011;38277;51.972;4.624;2022-07-06T00:08:08;3.2;;;1.0;;
52342;SDS011;38277;51.972;4.624;2022-07-06T00:17:06;2.4;;;1.0;;
52342;SDS011;38277;51.972;4.624;2022-07-06T00:21:54;2.3;;;0.9;;
52342;SDS011;38277;51.972;4.624;2022-07-06T00:30:47;2.6;;;1.0;;
52342;SDS011;38277;51.972;4.624;2022-07-06T00:35:03;1.7;;;1.0;;
52342;SDS011;38277;51.972;4.624;2022-07-06T00:39:55;2.0;;;1.0;;
52342;SDS011;38277;51.972;4.624;2022-07-06T00:43:58;2.1;;;1.7;;
52342;SDS011;38277;51.972;4.624;2022-07-06T00:48:29;2.6;;;1.0;;
52342;SDS011;38277;51.972;4.624;2022-07-06T00:53:03;1.9;;;0.9;;
52342;SDS011;38277;51.972;4.624;2022-07-06T00:57:54;1.4;;;1.0;;
52342;SDS011;38277;51.972;4.624;2022-07-06T01:02:10;1.7;;;0.9;;
52342;SDS011;38277;51.972;4.624;2022-07-06T01:06:50;2.5;;;0.9;;
52342;SDS011;38277;51.972;4.624;2022-07-06T01:11:17;1.3;;;0.9;;
52342;SDS011;38277;51.972;4.624;2022-07-06T01:15:51;4.2;;;1.5;;
52342;SDS011;38277;51.972;4.624;2022-07-06T01:20:12;2.9;;;0.8;;
52342;SDS011;38277;51.972;4.624;2022-07-06T01:24:53;2.0;;;0.9;;
52342;SDS011;38277;51.972;4.624;2022-07-06T01:33:52;2.4;;;0.9;;
52342;SDS011;38277;51.972;4.624;2022-07-06T01:38:01;2.7;;;0.9;;
52342;SDS011;38277;51.972;4.624;2022-07-06T01:42:37;1.4;;;0.8;;
52342;SDS011;38277;51.972;4.624;2022-07-06T01:47:23;2.1;;;1.0;;
52342;SDS011;38277;51.972;4.624;2022-07-06T01:51:39;1.6;;;0.8;;
52342;SDS011;38277;51.972;4.624;2022-07-06T01:56:11;1.3;;;0.8;;
52342;SDS011;38277;51.972;4.624;2022-07-06T02:00:35;2.1;;;0.7;;
52342;SDS011;38277;51.972;4.624;2022-07-06T02:09:36;1.9;;;0.7;;
52342;SDS011;38277;51.972;4.624;2022-07-06T02:14:25;1.4;;;0.8;;
52342;SDS011;38277;51.972;4.624;2022-07-06T02:18:37;2.8;;;1.1;;
52342;SDS011;38277;51.972;4.624;2022-07-06T02:23:01;1.0;;;0.6;;
52342;SDS011;38277;51.972;4.624;2022-07-06T02:27:48;1.5;;;0.8;;
52342;SDS011;38277;51.972;4.624;2022-07-06T02:32:25;2.5;;;1.0;;
52342;SDS011;38277;51.972;4.624;2022-07-06T02:36:38;1.9;;;0.7;;
52342;SDS011;38277;51.972;4.624;2022-07-06T02:41:14;1.7;;;0.6;;
52342;SDS011;38277;51.972;4.624;2022-07-06T02:45:51;1.7;;;0.6;;
52342;SDS011;38277;51.972;4.624;2022-07-06T02:50:16;1.0;;;0.8;;
52342;SDS011;38277;51.972;4.624;2022-07-06T02:54:40;0.9;;;0.8;;
52342;SDS011;38277;51.972;4.624;2022-07-06T02:59:10;2.8;;;1.2;;
52342;SDS011;38277;51.972;4.624;2022-07-06T03:03:49;2.0;;;0.6;;
52342;SDS011;38277;51.972;4.624;2022-07-06T03:08:14;0.6;;;0.5;;
52342;SDS011;38277;51.972;4.624;2022-07-06T03:12:48;0.9;;;0.7;;
52342;SDS011;38277;51.972;4.624;2022-07-06T03:17:08;1.2;;;0.5;;
52342;SDS011;38277;51.972;4.624;2022-07-06T03:21:50;0.9;;;0.8;;
52342;SDS011;38277;51.972;4.624;2022-07-06T03:26:25;2.7;;;0.9;;
52342;SDS011;38277;51.972;4.624;2022-07-06T03:30:38;1.3;;;0.9;;
52342;SDS011;38277;51.972;4.624;2022-07-06T03:35:26;1.8;;;0.9;;
52342;SDS011;38277;51.972;4.624;2022-07-06T03:39:42;1.4;;;0.8;;
52342;SDS011;38277;51.972;4.624;2022-07-06T03:48:48;2.1;;;0.9;;
52342;SDS011;38277;51.972;4.624;2022-07-06T03:53:21;1.5;;;1.2;;
52342;SDS011;38277;51.972;4.624;2022-07-06T03:57:28;2.7;;;1.0;;
52342;SDS011;38277;51.972;4.624;2022-07-06T04:02:21;1.1;;;0.9;;
52342;SDS011;38277;51.972;4.624;2022-07-06T04:06:49;2.3;;;1.0;;
52342;SDS011;38277;51.972;4.624;2022-07-06T04:11:24;1.5;;;0.9;;
52342;SDS011;38277;51.972;4.624;2022-07-06T04:15:55;2.0;;;0.9;;
52342;SDS011;38277;51.972;4.624;2022-07-06T04:24:32;2.8;;;0.8;;
52342;SDS011;38277;51.972;4.624;2022-07-06T04:29:10;1.9;;;1.0;;
52342;SDS011;38277;51.972;4.624;2022-07-06T04:33:47;1.7;;;1.0;;
52342;SDS011;38277;51.972;4.624;2022-07-06T04:38:01;1.6;;;0.7;;
52342;SDS011;38277;51.972;4.624;2022-07-06T04:42:39;1.8;;;1.0;;
52342;SDS011;38277;51.972;4.624;2022-07-06T04:47:18;1.3;;;0.8;;
52342;SDS011;38277;51.972;4.624;2022-07-06T04:51:31;2.2;;;0.8;;
52342;SDS011;38277;51.972;4.624;2022-07-06T04:55:59;2.2;;;0.8;;
52342;SDS011;38277;51.972;4.624;2022-07-06T05:00:55;1.9;;;0.7;;
52342;SDS011;38277;51.972;4.624;2022-07-06T05:05:22;1.3;;;0.8;;
52342;SDS011;38277;51.972;4.624;2022-07-06T05:09:37;2.7;;;0.9;;
52342;SDS011;38277;51.972;4.624;2022-07-06T05:14:18;3.4;;;0.8;;
52342;SDS011;38277;51.972;4.624;2022-07-06T05:18:51;1.3;;;1.0;;
52342;SDS011;38277;51.972;4.624;2022-07-06T05:23:11;2.8;;;1.0;;
52342;SDS011;38277;51.972;4.624;2022-07-06T05:32:04;2.9;;;1.0;;
52342;SDS011;38277;51.972;4.624;2022-07-06T05:36:50;2.7;;;1.0;;
52342;SDS011;38277;51.972;4.624;2022-07-06T05:41:10;1.5;;;0.9;;
52342;SDS011;38277;51.972;4.624;2022-07-06T05:50:13;2.5;;;1.0;;
52342;SDS011;38277;51.972;4.624;2022-07-06T05:57:54;1.5;;;0.8;;
52342;SDS011;38277;51.972;4.624;2022-07-06T05:59:32;1.2;;;0.8;;
52342;SDS011;38277;51.972;4.624;2022-07-06T06:04:28;3.5;;;0.8;;
52342;SDS011;38277;51.972;4.624;2022-07-06T06:11:03;3.0;;;0.8;;
52342;SDS011;38277;51.972;4.624;2022-07-06T06:17:22;2.1;;;0.9;;
52342;SDS011;38277;51.972;4.624;2022-07-06T06:22:18;2.9;;;1.0;;
52342;SDS011;38277;51.972;4.624;2022-07-06T06:27:14;1.5;;;0.9;;
52342;SDS011;38277;51.972;4.624;2022-07-06T06:33:49;1.5;;;1.1;;
52342;SDS011;38277;51.972;4.624;2022-07-06T06:39:37;1.9;;;0.8;;
52342;SDS011;38277;51.972;4.624;2022-07-06T06:44:33;1.7;;;1.1;;
52342;SDS011;38277;51.972;4.624;2022-07-06T06:49:30;1.2;;;0.6;;
52342;SDS011;38277;51.972;4.624;2022-07-06T06:53:18;0.6;;;0.6;;
52342;SDS011;38277;51.972;4.624;2022-07-06T06:57:50;1.5;;;0.6;;
52342;SDS011;38277;51.972;4.624;2022-07-06T07:02:23;1.6;;;0.6;;
52342;SDS011;38277;51.972;4.624;2022-07-06T07:08:35;1.0;;;0.5;;
52342;SDS011;38277;51.972;4.624;2022-07-06T07:11:12;2.5;;;1.3;;
52342;SDS011;38277;51.972;4.624;2022-07-06T07:15:43;1.6;;;0.5;;
52342;SDS011;38277;51.972;4.624;2022-07-06T07:20:01;2.8;;;1.5;;
52342;SDS011;38277;51.972;4.624;2022-07-06T07:24:28;2.7;;;0.7;;
52342;SDS011;38277;51.972;4.624;2022-07-06T07:29:10;0.6;;;0.4;;
52342;SDS011;38277;51.972;4.624;2022-07-06T07:38:15;0.9;;;0.5;;
52342;SDS011;38277;51.972;4.624;2022-07-06T07:42:28;0.5;;;0.3;;
52342;SDS011;38277;51.972;4.624;2022-07-06T07:47:20;2.1;;;1.6;;
52342;SDS011;38277;51.972;4.624;2022-07-06T07:51:57;1.2;;;0.6;;
52342;SDS011;38277;51.972;4.624;2022-07-06T07:56:06;0.7;;;0.5;;
52342;SDS011;38277;51.972;4.624;2022-07-06T08:00:32;0.8;;;0.6;;
52342;SDS011;38277;51.972;4.624;2022-07-06T08:05:04;1.1;;;0.4;;
52342;SDS011;38277;51.972;4.624;2022-07-06T08:09:31;1.4;;;0.4;;
52342;SDS011;38277;51.972;4.624;2022-07-06T08:14:01;1.4;;;0.4;;
52342;SDS011;38277;51.972;4.624;2022-07-06T08:18:46;0.5;;;0.3;;
52342;SDS011;38277;51.972;4.624;2022-07-06T08:23:02;0.9;;;0.4;;
52342;SDS011;38277;51.972;4.624;2022-07-06T08:31:58;2.0;;;0.5;;
52342;SDS011;38277;51.972;4.624;2022-07-06T08:36:45;1.2;;;0.4;;
52342;SDS011;38277;51.972;4.624;2022-07-06T08:41:23;1.6;;;0.5;;
52342;SDS011;38277;51.972;4.624;2022-07-06T08:45:46;0.8;;;0.7;;
52342;SDS011;38277;51.972;4.624;2022-07-06T08:50:09;4.0;;;0.6;;
52342;SDS011;38277;51.972;4.624;2022-07-06T08:54:49;1.0;;;0.4;;
52342;SDS011;38277;51.972;4.624;2022-07-06T08:59:02;0.6;;;0.4;;
52342;SDS011;38277;51.972;4.624;2022-07-06T09:08:10;0.3;;;0.3;;
52342;SDS011;38277;51.972;4.624;2022-07-06T09:12:35;2.0;;;0.4;;
52342;SDS011;38277;51.972;4.624;2022-07-06T09:21:52;1.6;;;0.4;;
52342;SDS011;38277;51.972;4.624;2022-07-06T09:26:16;0.4;;;0.4;;
52342;SDS011;38277;51.972;4.624;2022-07-06T09:32:13;2.7;;;0.5;;
52342;SDS011;38277;51.972;4.624;2022-07-06T09:35:25;1.6;;;0.4;;
52342;SDS011;38277;51.972;4.624;2022-07-06T09:39:37;2.9;;;0.5;;
52342;SDS011;38277;51.972;4.624;2022-07-06T09:44:00;2.2;;;0.5;;
52342;SDS011;38277;51.972;4.624;2022-07-06T09:50:21;0.7;;;0.4;;
52342;SDS011;38277;51.972;4.624;2022-07-06T09:54:39;0.6;;;0.3;;
52342;SDS011;38277;51.972;4.624;2022-07-06T09:59:26;0.9;;;0.4;;
52342;SDS011;38277;51.972;4.624;2022-07-06T10:02:02;3.3;;;0.8;;
52342;SDS011;38277;51.972;4.624;2022-07-06T10:08:22;1.8;;;0.7;;
52342;SDS011;38277;51.972;4.624;2022-07-06T10:11:22;2.9;;;0.6;;
52342;SDS011;38277;51.972;4.624;2022-07-06T10:15:45;1.6;;;0.7;;
52342;SDS011;38277;51.972;4.624;2022-07-06T10:20:07;1.5;;;0.9;;
52342;SDS011;38277;51.972;4.624;2022-07-06T10:24:35;1.5;;;0.6;;
52342;SDS011;38277;51.972;4.624;2022-07-06T10:33:47;3.8;;;0.7;;
52342;SDS011;38277;51.972;4.624;2022-07-06T10:38:09;3.7;;;0.7;;
52342;SDS011;38277;51.972;4.624;2022-07-06T10:42:46;1.5;;;0.6;;
52342;SDS011;38277;51.972;4.624;2022-07-06T10:47:03;2.7;;;0.8;;
52342;SDS011;38277;51.972;4.624;2022-07-06T10:53:37;1.6;;;0.5;;
52342;SDS011;38277;51.972;4.624;2022-07-06T10:58:46;1.5;;;0.7;;
52342;SDS011;38277;51.972;4.624;2022-07-06T11:01:19;2.2;;;0.7;;
52342;SDS011;38277;51.972;4.624;2022-07-06T11:06:15;1.5;;;0.7;;
52342;SDS011;38277;51.972;4.624;2022-07-06T11:14:18;3.4;;;1.3;;
52342;SDS011;38277;51.972;4.624;2022-07-06T11:19:14;2.7;;;1.2;;
52342;SDS011;38277;51.972;4.624;2022-07-06T11:24:11;2.4;;;0.8;;
52342;SDS011;38277;51.972;4.624;2022-07-06T11:29:07;1.8;;;0.6;;
52342;SDS011;38277;51.972;4.624;2022-07-06T11:38:25;1.6;;;0.9;;
52342;SDS011;38277;51.972;4.624;2022-07-06T11:41:40;1.9;;;0.8;;
52342;SDS011;38277;51.972;4.624;2022-07-06T11:46:35;3.3;;;0.7;;
52342;SDS011;38277;51.972;4.624;2022-07-06T11:51:35;2.8;;;0.8;;
52342;SDS011;38277;51.972;4.624;2022-07-06T11:59:03;3.3;;;1.3;;
52342;SDS011;38277;51.972;4.624;2022-07-06T12:04:00;2.5;;;0.8;;
52342;SDS011;38277;51.972;4.624;2022-07-06T12:08:56;2.3;;;0.7;;
52342;SDS011;38277;51.972;4.624;2022-07-06T12:13:52;1.9;;;0.7;;
52342;SDS011;38277;51.972;4.624;2022-07-06T12:17:04;5.1;;;1.0;;
52342;SDS011;38277;51.972;4.624;2022-07-06T12:21:43;3.5;;;0.9;;
52342;SDS011;38277;51.972;4.624;2022-07-06T12:26:26;1.5;;;0.7;;
52342;SDS011;38277;51.972;4.624;2022-07-06T12:30:45;3.3;;;1.3;;
52342;SDS011;38277;51.972;4.624;2022-07-06T12:35:03;1.5;;;0.7;;
52342;SDS011;38277;51.972;4.624;2022-07-06T12:39:44;1.8;;;0.9;;
52342;SDS011;38277;51.972;4.624;2022-07-06T12:44:08;2.8;;;1.0;;
52342;SDS011;38277;51.972;4.624;2022-07-06T12:48:30;3.2;;;1.1;;
52342;SDS011;38277;51.972;4.624;2022-07-06T12:53:26;3.9;;;1.1;;
52342;SDS011;38277;51.972;4.624;2022-07-06T12:57:43;2.3;;;0.8;;
52342;SDS011;38277;51.972;4.624;2022-07-06T13:02:19;2.7;;;1.1;;
52342;SDS011;38277;51.972;4.624;2022-07-06T13:06:46;3.1;;;0.9;;
52342;SDS011;38277;51.972;4.624;2022-07-06T13:11:06;3.1;;;1.1;;
52342;SDS011;38277;51.972;4.624;2022-07-06T13:15:44;3.6;;;1.3;;
52342;SDS011;38277;51.972;4.624;2022-07-06T13:24:56;1.2;;;0.8;;
52342;SDS011;38277;51.972;4.624;2022-07-06T13:29:20;4.5;;;1.2;;
52342;SDS011;38277;51.972;4.624;2022-07-06T13:33:39;3.9;;;1.4;;
52342;SDS011;38277;51.972;4.624;2022-07-06T13:38:03;7.9;;;2.9;;
52342;SDS011;38277;51.972;4.624;2022-07-06T13:42:44;6.2;;;1.7;;
52342;SDS011;38277;51.972;4.624;2022-07-06T13:47:03;2.6;;;1.1;;
52342;SDS011;38277;51.972;4.624;2022-07-06T13:51:55;4.9;;;1.2;;
52342;SDS011;38277;51.972;4.624;2022-07-06T14:00:33;5.9;;;2.0;;
52342;SDS011;38277;51.972;4.624;2022-07-06T14:05:19;4.4;;;1.3;;
52342;SDS011;38277;51.972;4.624;2022-07-06T14:09:34;5.4;;;1.5;;
52342;SDS011;38277;51.972;4.624;2022-07-06T14:14:24;6.5;;;1.4;;
52342;SDS011;38277;51.972;4.624;2022-07-06T14:18:36;2.9;;;1.7;;
52342;SDS011;38277;51.972;4.624;2022-07-06T14:22:59;4.3;;;1.9;;
52342;SDS011;38277;51.972;4.624;2022-07-06T14:27:38;4.3;;;1.8;;
52342;SDS011;38277;51.972;4.624;2022-07-06T14:32:19;5.7;;;1.8;;
52342;SDS011;38277;51.972;4.624;2022-07-06T14:36:42;4.3;;;1.7;;
52342;SDS011;38277;51.972;4.624;2022-07-06T14:41:25;7.6;;;2.2;;
52342;SDS011;38277;51.972;4.624;2022-07-06T14:45:39;2.5;;;1.4;;
52342;SDS011;38277;51.972;4.624;2022-07-06T14:50:03;4.1;;;1.6;;
52342;SDS011;38277;51.972;4.624;2022-07-06T14:54:44;7.4;;;1.6;;
52342;SDS011;38277;51.972;4.624;2022-07-06T14:59:01;6.8;;;2.0;;
52342;SDS011;38277;51.972;4.624;2022-07-06T15:03:31;4.7;;;1.8;;
52342;SDS011;38277;51.972;4.624;2022-07-06T15:08:15;4.5;;;1.8;;
52342;SDS011;38277;51.972;4.624;2022-07-06T15:12:51;6.5;;;2.3;;
52342;SDS011;38277;51.972;4.624;2022-07-06T15:17:08;5.2;;;1.8;;
52342;SDS011;38277;51.972;4.624;2022-07-06T15:26:03;3.9;;;2.1;;
52342;SDS011;38277;51.972;4.624;2022-07-06T15:30:53;5.8;;;2.6;;
52342;SDS011;38277;51.972;4.624;2022-07-06T15:35:18;5.5;;;2.0;;
52342;SDS011;38277;51.972;4.624;2022-07-06T15:39:30;7.4;;;2.0;;
52342;SDS011;38277;51.972;4.624;2022-07-06T15:44:26;3.3;;;1.7;;
52342;SDS011;38277;51.972;4.624;2022-07-06T15:48:29;4.7;;;1.8;;
52342;SDS011;38277;51.972;4.624;2022-07-06T15:53:18;4.6;;;1.9;;
52342;SDS011;38277;51.972;4.624;2022-07-06T16:02:06;3.4;;;1.6;;
52342;SDS011;38277;51.972;4.624;2022-07-06T16:06:37;4.8;;;1.9;;
52342;SDS011;38277;51.972;4.624;2022-07-06T16:11:21;5.7;;;1.9;;
52342;SDS011;38277;51.972;4.624;2022-07-06T16:15:52;6.7;;;1.8;;
52342;SDS011;38277;51.972;4.624;2022-07-06T16:20:10;8.7;;;2.3;;
52342;SDS011;38277;51.972;4.624;2022-07-06T16:24:35;5.7;;;1.6;;
52342;SDS011;38277;51.972;4.624;2022-07-06T16:29:15;7.4;;;1.9;;
52342;SDS011;38277;51.972;4.624;2022-07-06T16:33:51;4.3;;;1.5;;
52342;SDS011;38277;51.972;4.624;2022-07-06T16:38:24;6.8;;;2.1;;
52342;SDS011;38277;51.972;4.624;2022-07-06T16:42:45;3.5;;;1.2;;
52342;SDS011;38277;51.972;4.624;2022-07-06T16:47:02;4.1;;;1.7;;
52342;SDS011;38277;51.972;4.624;2022-07-06T16:51:33;5.5;;;1.5;;
52342;SDS011;38277;51.972;4.624;2022-07-06T16:56:19;4.3;;;1.3;;
52342;SDS011;38277;51.972;4.624;2022-07-06T17:00:36;7.9;;;1.7;;
52342;SDS011;38277;51.972;4.624;2022-07-06T17:05:11;5.6;;;1.3;;
52342;SDS011;38277;51.972;4.624;2022-07-06T17:09:48;3.0;;;1.1;;
52342;SDS011;38277;51.972;4.624;2022-07-06T17:14:06;3.3;;;1.1;;
52342;SDS011;38277;51.972;4.624;2022-07-06T17:18:50;1.5;;;0.9;;
52342;SDS011;38277;51.972;4.624;2022-07-06T17:23:19;2.8;;;1.1;;
52342;SDS011;38277;51.972;4.624;2022-07-06T17:27:29;3.1;;;1.2;;
52342;SDS011;38277;51.972;4.624;2022-07-06T17:36:29;2.4;;;1.1;;
52342;SDS011;38277;51.972;4.624;2022-07-06T17:41:25;3.8;;;1.6;;
52342;SDS011;38277;51.972;4.624;2022-07-06T17:45:28;2.2;;;1.2;;
52342;SDS011;38277;51.972;4.624;2022-07-06T17:50:08;3.4;;;1.6;;
52342;SDS011;38277;51.972;4.624;2022-07-06T17:54:29;2.5;;;1.5;;
52342;SDS011;38277;51.972;4.624;2022-07-06T17:59:27;3.0;;;1.5;;
52342;SDS011;38277;51.972;4.624;2022-07-06T18:03:42;4.7;;;1.6;;
52342;SDS011;38277;51.972;4.624;2022-07-06T18:12:41;6.0;;;2.3;;
52342;SDS011;38277;51.972;4.624;2022-07-06T18:17:01;4.3;;;1.9;;
52342;SDS011;38277;51.972;4.624;2022-07-06T18:21:55;3.6;;;1.9;;
52342;SDS011;38277;51.972;4.624;2022-07-06T18:26:51;7.9;;;2.2;;
52342;SDS011;38277;51.972;4.624;2022-07-06T18:31:47;10.1;;;2.4;;
52342;SDS011;38277;51.972;4.624;2022-07-06T18:39:42;9.1;;;2.6;;
52342;SDS011;38277;51.972;4.624;2022-07-06T18:46:17;4.5;;;1.9;;
52342;SDS011;38277;51.972;4.624;2022-07-06T18:49:34;5.3;;;1.8;;
52342;SDS011;38277;51.972;4.624;2022-07-06T18:54:30;5.7;;;1.9;;
52342;SDS011;38277;51.972;4.624;2022-07-06T19:01:58;4.2;;;2.2;;
52342;SDS011;38277;51.972;4.624;2022-07-06T19:06:55;6.7;;;2.4;;
52342;SDS011;38277;51.972;4.624;2022-07-06T19:11:50;4.1;;;1.9;;
52342;SDS011;38277;51.972;4.624;2022-07-06T19:16:46;3.0;;;1.7;;
52342;SDS011;38277;51.972;4.624;2022-07-06T19:24:57;2.5;;;1.7;;
52342;SDS011;38277;51.972;4.624;2022-07-06T19:29:22;3.7;;;1.8;;
52342;SDS011;38277;51.972;4.624;2022-07-06T19:33:52;2.8;;;1.6;;
52342;SDS011;38277;51.972;4.624;2022-07-06T19:38:13;5.9;;;2.0;;
52342;SDS011;38277;51.972;4.624;2022-07-06T19:42:37;3.9;;;1.7;;
52342;SDS011;38277;51.972;4.624;2022-07-06T19:47:27;3.8;;;1.7;;
52342;SDS011;38277;51.972;4.624;2022-07-06T19:51:56;2.9;;;1.8;;
52342;SDS011;38277;51.972;4.624;2022-07-06T19:56:16;4.6;;;2.1;;
52342;SDS011;38277;51.972;4.624;2022-07-06T20:02:17;4.6;;;2.1;;
52342;SDS011;38277;51.972;4.624;2022-07-06T20:05:15;7.0;;;2.0;;
52342;SDS011;38277;51.972;4.624;2022-07-06T20:09:53;2.5;;;1.8;;
52342;SDS011;38277;51.972;4.624;2022-07-06T20:14:03;6.2;;;2.6;;
52342;SDS011;38277;51.972;4.624;2022-07-06T20:18:47;6.2;;;2.2;;
52342;SDS011;38277;51.972;4.624;2022-07-06T20:23:03;6.0;;;2.2;;
52342;SDS011;38277;51.972;4.624;2022-07-06T20:32:09;4.4;;;2.2;;
52342;SDS011;38277;51.972;4.624;2022-07-06T20:36:31;4.0;;;2.3;;
52342;SDS011;38277;51.972;4.624;2022-07-06T20:41:10;4.9;;;2.5;;
52342;SDS011;38277;51.972;4.624;2022-07-06T20:45:51;6.2;;;2.4;;
52342;SDS011;38277;51.972;4.624;2022-07-06T20:50:01;5.5;;;2.8;;
52342;SDS011;38277;51.972;4.624;2022-07-06T20:54:54;7.1;;;3.1;;
52342;SDS011;38277;51.972;4.624;2022-07-06T20:59:15;6.2;;;3.2;;
52342;SDS011;38277;51.972;4.624;2022-07-06T21:08:26;6.5;;;3.1;;
52342;SDS011;38277;51.972;4.624;2022-07-06T21:12:49;6.8;;;3.3;;
52342;SDS011;38277;51.972;4.624;2022-07-06T21:21:51;6.0;;;3.3;;
52342;SDS011;38277;51.972;4.624;2022-07-06T21:30:47;8.3;;;3.0;;
52342;SDS011;38277;51.972;4.624;2022-07-06T21:35:26;7.2;;;3.6;;
52342;SDS011;38277;51.972;4.624;2022-07-06T21:43:59;5.4;;;2.7;;
52342;SDS011;38277;51.972;4.624;2022-07-06T21:48:37;5.6;;;2.9;;
52342;SDS011;38277;51.972;4.624;2022-07-06T21:53:23;5.4;;;2.5;;
52342;SDS011;38277;51.972;4.624;2022-07-06T21:57:49;4.1;;;2.1;;
52342;SDS011;38277;51.972;4.624;2022-07-06T22:02:03;6.5;;;2.6;;
52342;SDS011;38277;51.972;4.624;2022-07-06T22:06:38;4.4;;;2.6;;
52342;SDS011;38277;51.972;4.624;2022-07-06T22:11:17;4.3;;;2.5;;
52342;SDS011;38277;51.972;4.624;2022-07-06T22:15:42;4.2;;;2.2;;
52342;SDS011;38277;51.972;4.624;2022-07-06T22:20:07;6.1;;;3.3;;
52342;SDS011;38277;51.972;4.624;2022-07-06T22:24:57;3.7;;;2.1;;
52342;SDS011;38277;51.972;4.624;2022-07-06T22:29:12;5.5;;;2.3;;
52342;SDS011;38277;51.972;4.624;2022-07-06T22:33:35;7.0;;;2.6;;
52342;SDS011;38277;51.972;4.624;2022-07-06T22:38:17;6.4;;;2.8;;
52342;SDS011;38277;51.972;4.624;2022-07-06T22:42:46;7.2;;;2.8;;
52342;SDS011;38277;51.972;4.624;2022-07-06T22:47:18;5.2;;;2.1;;
52342;SDS011;38277;51.972;4.624;2022-07-06T22:51:43;4.9;;;2.4;;
52342;SDS011;38277;51.972;4.624;2022-07-06T22:56:18;4.0;;;2.0;;
52342;SDS011;38277;51.972;4.624;2022-07-06T23:00:40;5.5;;;2.2;;
52342;SDS011;38277;51.972;4.624;2022-07-06T23:09:51;14.1;;;3.3;;
52342;SDS011;38277;51.972;4.624;2022-07-06T23:14:08;5.4;;;2.2;;
52342;SDS011;38277;51.972;4.624;2022-07-06T23:18:42;7.6;;;2.5;;
52342;SDS011;38277;51.972;4.624;2022-07-06T23:22:58;4.4;;;2.0;;
52342;SDS011;38277;51.972;4.624;2022-07-06T23:27:36;5.1;;;2.1;;
52342;SDS011;38277;51.972;4.624;2022-07-06T23:32:16;4.5;;;2.0;;
52342;SDS011;38277;51.972;4.624;2022-07-06T23:36:36;4.3;;;2.0;;
52342;SDS011;38277;51.972;4.624;2022-07-06T23:45:48;9.2;;;2.1;;
52342;SDS011;38277;51.972;4.624;2022-07-06T23:50:14;3.4;;;1.8;;
52342;SDS011;38277;51.972;4.624;2022-07-06T23:54:45;3.6;;;1.7;;
52342;SDS011;38277;51.972;4.624;2022-07-06T23:59:03;5.5;;;2.1;;
